ENNM

Namsos Høknesøra Airport

Namsos, Norway
METAR ENNM 170650Z 02007KT CAVOK M04/M07 Q1017
Observed Flight Rules
Dec-17 @ 06:50 UTC (38 minutes ago) Visual Flight Rules
Wind Visibility Clouds
20° at 7 knots 10,000+ meters
  • Clear skies
Temperatures Readings
Current -4°C / 25°F
Dewpoint -7°C / 19°F
Humidity 80%
Altimeter 30.03" Hg
Pressure 1017 hPa
Elevation 2
METAR ENNM 170650Z 02007KT CAVOK M04/M07 Q1017
Observed Flight Rules
Dec-17 @ 06:50 UTC
(38 minutes ago)
VFR
Wind Visibility
20° at 7 knots 10,000+ meters
Clouds
  • Clear skies
Temperature Dewpoint
-4°C / 25°F -7°C / 19°F
Humidity Altimeter Pressure
80% 30.03" Hg 1017 hPa